Norwegian Spirit — C6TQ6 — position and weather

sailwx.info

Track history (hours):
 
Tides and Currents Weather Stations Pressure Air Temp Water Temp Dewpoint Dewpoint Depression Visibility Wind Speed Wind Dir Waves Ship Positions

Norwegian Spirit

Operator: Norwegian Cruise Line

Last reported at 2017-Apr-28 20:07 UTC. Time now 2017-Apr-29 03:28 UTC.
Position N 36°24' E 023°11'.

Type: Passenger vessel. MMSI: 311746000.

Date/timePositionNaut miles runAvg speedWind from/ knotsBaromVisibWave heightAir tempDewpointWater temp
2017-Apr-28 20:07N 36°24' E 023°11'217.6
2017-Apr-28 20:00N 36°24' E 023°13'917.8
2017-Apr-28 19:30N 36°23' E 023°25'917.9
2017-Apr-28 19:01N 36°23' E 023°35'917.9
2017-Apr-28 18:31N 36°24' E 023°47'917.9
2017-Apr-28 18:00N 36°24' E 023°58'918.2
2017-Apr-28 17:30N 36°25' E 024°09'918.2
2017-Apr-28 17:01N 36°26' E 024°20'18 0.9
2017-Apr-27 22:20N 36°41' E 024°08'515.2
2017-Apr-27 22:00N 36°45' E 024°05'1914.1
2017-Apr-27 20:39N 37°03' E 023°58'212.3
2017-Apr-27 20:27N 37°05' E 023°57'711.6
2017-Apr-27 19:49N 37°12' E 023°54'612.4
2017-Apr-27 19:22N 37°18' E 023°52'4 9.7
2017-Apr-27 19:00N 37°18' E 023°48'5175.0 260 / 141017.0 18.014.818.0
2017-Apr-27 18:58N 37°23' E 023°51'613.4
2017-Apr-27 18:31N 37°29' E 023°48'713.4
2017-Apr-27 18:01N 37°35' E 023°45'5324.3
2017-Apr-27 18:00N 37°30' E 023°42'1123.2 220 / 161017.0 18.014.818.0
2017-Apr-27 17:31N 37°41' E 023°42'713.5
2017-Apr-27 17:00N 37°47' E 023°38'713.1
2017-Apr-27 16:30N 37°54' E 023°37'3 5.2
2017-Apr-27 15:58N 37°56' E 023°38'0 0.0
2017-Apr-27 15:28N 37°56' E 023°38'0 0.0
2017-Apr-27 14:58N 37°56' E 023°38'0 0.0
2017-Apr-27 13:58N 37°56' E 023°38'0 0.0
2017-Apr-27 13:28N 37°56' E 023°38'0 0.0
2017-Apr-27 12:58N 37°56' E 023°38'0 0.0
2017-Apr-27 12:28N 37°56' E 023°38'0 0.0
2017-Apr-27 11:58N 37°56' E 023°38'0 0.0
2017-Apr-27 11:28N 37°56' E 023°38'0 0.0
2017-Apr-27 10:58N 37°56' E 023°38'0 0.0
2017-Apr-27 10:28N 37°56' E 023°38'0 0.0
2017-Apr-27 09:58N 37°56' E 023°38'0 0.0
2017-Apr-27 09:28N 37°56' E 023°38'0 0.0
2017-Apr-27 08:58N 37°56' E 023°38'0 0.0
2017-Apr-27 08:28N 37°56' E 023°38'0 0.0
2017-Apr-27 07:58N 37°56' E 023°38'0 0.0
2017-Apr-27 07:28N 37°56' E 023°38'0 0.0
2017-Apr-27 06:58N 37°56' E 023°38'0 0.0
2017-Apr-27 06:28N 37°56' E 023°38'0 0.0
2017-Apr-27 04:48N 37°56' E 023°38'0 0.0
2017-Apr-27 04:30N 37°56' E 023°38'0 0.0
2017-Apr-27 04:00N 37°56' E 023°38'1 1.3
2017-Apr-27 03:30N 37°56' E 023°37'1 2.4
2017-Apr-27 03:00N 37°55' E 023°36'612.4
2017-Apr-27 02:30N 37°49' E 023°40'815.4
2017-Apr-27 02:00N 37°43' E 023°44'815.3
2017-Apr-27 01:30N 37°35' E 023°44'815.8
2017-Apr-27 01:00N 37°27' E 023°43'816.2
2017-Apr-27 00:30N 37°19' E 023°41'916.1
2017-Apr-26 23:56N 37°10' E 023°37'1216.0
2017-Apr-26 23:09N 36°58' E 023°35'416.0
2017-Apr-26 22:53N 36°54' E 023°34'717.0
2017-Apr-26 22:30N 36°47' E 023°32'917.1
2017-Apr-26 22:00N 36°40' E 023°27'1016.6
2017-Apr-26 21:25N 36°31' E 023°22'19414.4
2017-Apr-26 08:00N 38°12' E 019°54'1918.6 150 / 151020.0 17.013.717.0
2017-Apr-26 07:00N 38°30' E 019°48'1515.2 140 / 161019.0 17.013.717.0
2017-Apr-26 06:00N 38°42' E 019°36'15817.6 160 / 151019.0 17.013.717.0
2017-Apr-25 21:00N 41°12' E 018°30'1918.6 190 / 271019.0 16.012.616.0
2017-Apr-25 20:00N 41°30' E 018°24'126 5.5 180 / 251019.0 16.012.616.0
2017-Apr-24 21:00N 42°36' E 016°00'1110.7 110 / 181019.0 16.012.616.0
2017-Apr-24 20:00N 42°42' E 015°48'4410.3 120 / 191019.0 16.012.616.0
2017-Apr-24 15:47N 43°07' E 014°59'411.0
2017-Apr-24 15:26N 43°10' E 014°56'511.1
2017-Apr-24 15:00N 43°14' E 014°52'611.0
2017-Apr-24 14:30N 43°18' E 014°47'52 9.5
2017-Apr-24 09:00N 43°48' E 013°48'1817.7 160 / 161020.0 15.011.615.0
2017-Apr-24 08:00N 44°00' E 013°30'16 9.7 190 / 141020.0 15.011.615.0
2017-Apr-24 06:22N 44°11' E 013°15'410.9
2017-Apr-24 06:00N 44°14' E 013°11'611.0
2017-Apr-24 05:30N 44°20' E 013°08'611.2
2017-Apr-24 05:00N 44°25' E 013°06'611.0
2017-Apr-24 04:30N 44°30' E 013°04'510.8
2017-Apr-24 04:00N 44°35' E 013°02'611.0
2017-Apr-24 03:30N 44°41' E 012°60'511.0
2017-Apr-24 03:00N 44°46' E 012°57'510.8
2017-Apr-24 02:30N 44°51' E 012°54'510.7
2017-Apr-24 02:00N 44°55' E 012°50'510.6
2017-Apr-24 01:30N 44°60' E 012°46'510.6
2017-Apr-24 01:00N 45°04' E 012°42'510.6
2017-Apr-24 00:30N 45°09' E 012°38'510.5
2017-Apr-24 00:00N 45°11' E 012°32'4 7.8
2017-Apr-23 23:30N 45°15' E 012°30'4 7.5
2017-Apr-23 23:00N 45°19' E 012°30'5 9.4
2017-Apr-23 22:30N 45°24' E 012°29'5 9.6
2017-Apr-23 22:00N 45°26' E 012°23'3 5.4
2017-Apr-23 21:30N 45°26' E 012°20'1 2.1
2017-Apr-23 21:00N 45°26' E 012°18'0 0.1
2017-Apr-23 20:29N 45°26' E 012°18'0 0.0
2017-Apr-23 19:58N 45°26' E 012°18'0 0.0
2017-Apr-23 19:28N 45°26' E 012°18'0 0.0
2017-Apr-23 18:58N 45°26' E 012°18'0 0.0
2017-Apr-23 18:28N 45°26' E 012°18'0 0.0
2017-Apr-23 17:58N 45°26' E 012°18'0 0.0
2017-Apr-23 17:28N 45°26' E 012°18'0 0.0
2017-Apr-23 16:58N 45°26' E 012°18'0 0.0
2017-Apr-23 16:28N 45°26' E 012°18'0 0.0
2017-Apr-23 15:58N 45°26' E 012°18'0 0.0
2017-Apr-23 15:28N 45°26' E 012°18'0 0.0
2017-Apr-23 14:58N 45°26' E 012°18'0 0.0
2017-Apr-23 13:58N 45°26' E 012°18'0 0.0
2017-Apr-23 13:28N 45°26' E 012°18'0 0.0
2017-Apr-23 12:58N 45°26' E 012°18'0 0.0
2017-Apr-23 12:28N 45°26' E 012°18'0 0.0
2017-Apr-23 11:58N 45°26' E 012°18'0 0.0
2017-Apr-23 11:29N 45°26' E 012°18'0 0.0
2017-Apr-23 10:58N 45°26' E 012°18'0 0.0
2017-Apr-23 10:28N 45°26' E 012°18'0 0.0
2017-Apr-23 09:58N 45°26' E 012°18'0 0.0
2017-Apr-23 09:28N 45°26' E 012°18'0 0.0
2017-Apr-23 08:58N 45°26' E 012°18'0 0.0
2017-Apr-23 08:28N 45°26' E 012°18'0 0.0
2017-Apr-23 07:58N 45°26' E 012°18'0 0.0
2017-Apr-23 07:28N 45°26' E 012°18'0 0.0
2017-Apr-23 06:58N 45°26' E 012°18'0 0.0
2017-Apr-23 06:28N 45°26' E 012°18'0 0.0
2017-Apr-23 05:55N 45°26' E 012°18'0 0.0
2017-Apr-23 05:28N 45°26' E 012°18'0 0.0
2017-Apr-23 04:58N 45°26' E 012°18'0 0.0
2017-Apr-23 04:28N 45°26' E 012°18'0 1.0
2017-Apr-23 04:00N 45°26' E 012°18'3 5.5
2017-Apr-23 03:30N 45°25' E 012°22'4 7.6
2017-Apr-23 03:00N 45°25' E 012°28'815.1
2017-Apr-23 02:30N 45°18' E 012°32'917.2
2017-Apr-23 02:00N 45°12' E 012°41'816.9
2017-Apr-23 01:30N 45°06' E 012°50'917.9
2017-Apr-23 01:01N 44°58' E 012°54'917.8
2017-Apr-23 00:31N 44°49' E 012°59'917.9
2017-Apr-23 00:00N 44°41' E 013°04'918.1
2017-Apr-22 23:30N 44°33' E 013°08'918.0
2017-Apr-22 23:00N 44°24' E 013°12'917.4
2017-Apr-22 22:30N 44°17' E 013°18'918.0
2017-Apr-22 22:00N 44°11' E 013°28'918.6
2017-Apr-22 21:30N 44°05' E 013°38'1121.2
2017-Apr-22 21:01N 43°59' E 013°50'1121.2
2017-Apr-22 20:30N 43°53' E 014°02'1021.0
2017-Apr-22 20:00N 43°48' E 014°15'2126.7
2017-Apr-22 20:00N 43°48' E 014°12'163 7.1 180 / 161018.0 14.010.520.0
2017-Apr-21 21:00N 42°24' E 017°24'9 8.9 030 / 161025.0 12.010.216.0
2017-Apr-21 20:00N 42°24' E 017°36'144 6.3 020 / 161025.0 12.0 8.316.0
2017-Apr-20 21:00N 40°12' E 018°54'1918.6 320 / 221020.0 13.0 9.417.0
2017-Apr-20 20:00N 39°54' E 019°00'40616.9 320 / 291020.0 13.011.217.0
2017-Apr-19 20:00N 36°06' E 026°06'206 9.5 120 / 191020.010.8 15.0-14.4
2017-Apr-18 22:17N 35°29' E 030°15'  
Track history (hours):
 
Tides and Currents Weather Stations Pressure Air Temp Water Temp Dewpoint Dewpoint Depression Visibility Wind Speed Wind Dir Waves Ship Positions

Norwegian Spirit

Operator: Norwegian Cruise Line

Last reported at 2017-Apr-28 20:07 UTC. Time now 2017-Apr-29 03:28 UTC.
Position N 36°24' E 023°11'.

Type: Passenger vessel. MMSI: 311746000.

Date/timePositionNaut miles runAvg speedWind from/ knotsBaromVisibWave heightAir tempDewpointWater temp
2017-Apr-28 20:07N 36°24' E 023°11'217.6
2017-Apr-28 20:00N 36°24' E 023°13'917.8
2017-Apr-28 19:30N 36°23' E 023°25'917.9
2017-Apr-28 19:01N 36°23' E 023°35'917.9
2017-Apr-28 18:31N 36°24' E 023°47'917.9
2017-Apr-28 18:00N 36°24' E 023°58'918.2
2017-Apr-28 17:30N 36°25' E 024°09'918.2
2017-Apr-28 17:01N 36°26' E 024°20'18 0.9
2017-Apr-27 22:20N 36°41' E 024°08'515.2
2017-Apr-27 22:00N 36°45' E 024°05'1914.1
2017-Apr-27 20:39N 37°03' E 023°58'212.3
2017-Apr-27 20:27N 37°05' E 023°57'711.6
2017-Apr-27 19:49N 37°12' E 023°54'612.4
2017-Apr-27 19:22N 37°18' E 023°52'4 9.7
2017-Apr-27 19:00N 37°18' E 023°48'5175.0 260 / 141017.0 18.014.818.0
2017-Apr-27 18:58N 37°23' E 023°51'613.4
2017-Apr-27 18:31N 37°29' E 023°48'713.4
2017-Apr-27 18:01N 37°35' E 023°45'5324.3
2017-Apr-27 18:00N 37°30' E 023°42'1123.2 220 / 161017.0 18.014.818.0
2017-Apr-27 17:31N 37°41' E 023°42'713.5
2017-Apr-27 17:00N 37°47' E 023°38'713.1
2017-Apr-27 16:30N 37°54' E 023°37'3 5.2
2017-Apr-27 15:58N 37°56' E 023°38'0 0.0
2017-Apr-27 15:28N 37°56' E 023°38'0 0.0
2017-Apr-27 14:58N 37°56' E 023°38'0 0.0
2017-Apr-27 13:58N 37°56' E 023°38'0 0.0
2017-Apr-27 13:28N 37°56' E 023°38'0 0.0
2017-Apr-27 12:58N 37°56' E 023°38'0 0.0
2017-Apr-27 12:28N 37°56' E 023°38'0 0.0
2017-Apr-27 11:58N 37°56' E 023°38'0 0.0
2017-Apr-27 11:28N 37°56' E 023°38'0 0.0
2017-Apr-27 10:58N 37°56' E 023°38'0 0.0
2017-Apr-27 10:28N 37°56' E 023°38'0 0.0
2017-Apr-27 09:58N 37°56' E 023°38'0 0.0
2017-Apr-27 09:28N 37°56' E 023°38'0 0.0
2017-Apr-27 08:58N 37°56' E 023°38'0 0.0
2017-Apr-27 08:28N 37°56' E 023°38'0 0.0
2017-Apr-27 07:58N 37°56' E 023°38'0 0.0
2017-Apr-27 07:28N 37°56' E 023°38'0 0.0
2017-Apr-27 06:58N 37°56' E 023°38'0 0.0
2017-Apr-27 06:28N 37°56' E 023°38'0 0.0
2017-Apr-27 04:48N 37°56' E 023°38'0 0.0
2017-Apr-27 04:30N 37°56' E 023°38'0 0.0
2017-Apr-27 04:00N 37°56' E 023°38'1 1.3
2017-Apr-27 03:30N 37°56' E 023°37'1 2.4
2017-Apr-27 03:00N 37°55' E 023°36'612.4
2017-Apr-27 02:30N 37°49' E 023°40'815.4
2017-Apr-27 02:00N 37°43' E 023°44'815.3
2017-Apr-27 01:30N 37°35' E 023°44'815.8
2017-Apr-27 01:00N 37°27' E 023°43'816.2
2017-Apr-27 00:30N 37°19' E 023°41'916.1
2017-Apr-26 23:56N 37°10' E 023°37'1216.0
2017-Apr-26 23:09N 36°58' E 023°35'416.0
2017-Apr-26 22:53N 36°54' E 023°34'717.0
2017-Apr-26 22:30N 36°47' E 023°32'917.1
2017-Apr-26 22:00N 36°40' E 023°27'1016.6
2017-Apr-26 21:25N 36°31' E 023°22'19414.4
2017-Apr-26 08:00N 38°12' E 019°54'1918.6 150 / 151020.0 17.013.717.0
2017-Apr-26 07:00N 38°30' E 019°48'1515.2 140 / 161019.0 17.013.717.0
2017-Apr-26 06:00N 38°42' E 019°36'15817.6 160 / 151019.0 17.013.717.0
2017-Apr-25 21:00N 41°12' E 018°30'1918.6 190 / 271019.0 16.012.616.0
2017-Apr-25 20:00N 41°30' E 018°24'126 5.5 180 / 251019.0 16.012.616.0
2017-Apr-24 21:00N 42°36' E 016°00'1110.7 110 / 181019.0 16.012.616.0
2017-Apr-24 20:00N 42°42' E 015°48'4410.3 120 / 191019.0 16.012.616.0
2017-Apr-24 15:47N 43°07' E 014°59'411.0
2017-Apr-24 15:26N 43°10' E 014°56'511.1
2017-Apr-24 15:00N 43°14' E 014°52'611.0
2017-Apr-24 14:30N 43°18' E 014°47'52 9.5
2017-Apr-24 09:00N 43°48' E 013°48'1817.7 160 / 161020.0 15.011.615.0
2017-Apr-24 08:00N 44°00' E 013°30'16 9.7 190 / 141020.0 15.011.615.0
2017-Apr-24 06:22N 44°11' E 013°15'410.9
2017-Apr-24 06:00N 44°14' E 013°11'611.0
2017-Apr-24 05:30N 44°20' E 013°08'611.2
2017-Apr-24 05:00N 44°25' E 013°06'611.0
2017-Apr-24 04:30N 44°30' E 013°04'510.8
2017-Apr-24 04:00N 44°35' E 013°02'611.0
2017-Apr-24 03:30N 44°41' E 012°60'511.0
2017-Apr-24 03:00N 44°46' E 012°57'510.8
2017-Apr-24 02:30N 44°51' E 012°54'510.7
2017-Apr-24 02:00N 44°55' E 012°50'510.6
2017-Apr-24 01:30N 44°60' E 012°46'510.6
2017-Apr-24 01:00N 45°04' E 012°42'510.6
2017-Apr-24 00:30N 45°09' E 012°38'510.5
2017-Apr-24 00:00N 45°11' E 012°32'4 7.8
2017-Apr-23 23:30N 45°15' E 012°30'4 7.5
2017-Apr-23 23:00N 45°19' E 012°30'5 9.4
2017-Apr-23 22:30N 45°24' E 012°29'5 9.6
2017-Apr-23 22:00N 45°26' E 012°23'3 5.4
2017-Apr-23 21:30N 45°26' E 012°20'1 2.1
2017-Apr-23 21:00N 45°26' E 012°18'0 0.1
2017-Apr-23 20:29N 45°26' E 012°18'0 0.0
2017-Apr-23 19:58N 45°26' E 012°18'0 0.0
2017-Apr-23 19:28N 45°26' E 012°18'0 0.0
2017-Apr-23 18:58N 45°26' E 012°18'0 0.0
2017-Apr-23 18:28N 45°26' E 012°18'0 0.0
2017-Apr-23 17:58N 45°26' E 012°18'0 0.0
2017-Apr-23 17:28N 45°26' E 012°18'0 0.0
2017-Apr-23 16:58N 45°26' E 012°18'0 0.0
2017-Apr-23 16:28N 45°26' E 012°18'0 0.0
2017-Apr-23 15:58N 45°26' E 012°18'0 0.0
2017-Apr-23 15:28N 45°26' E 012°18'0 0.0
2017-Apr-23 14:58N 45°26' E 012°18'0 0.0
2017-Apr-23 13:58N 45°26' E 012°18'0 0.0
2017-Apr-23 13:28N 45°26' E 012°18'0 0.0
2017-Apr-23 12:58N 45°26' E 012°18'0 0.0
2017-Apr-23 12:28N 45°26' E 012°18'0 0.0
2017-Apr-23 11:58N 45°26' E 012°18'0 0.0
2017-Apr-23 11:29N 45°26' E 012°18'0 0.0
2017-Apr-23 10:58N 45°26' E 012°18'0 0.0
2017-Apr-23 10:28N 45°26' E 012°18'0 0.0
2017-Apr-23 09:58N 45°26' E 012°18'0 0.0
2017-Apr-23 09:28N 45°26' E 012°18'0 0.0
2017-Apr-23 08:58N 45°26' E 012°18'0 0.0
2017-Apr-23 08:28N 45°26' E 012°18'0 0.0
2017-Apr-23 07:58N 45°26' E 012°18'0 0.0
2017-Apr-23 07:28N 45°26' E 012°18'0 0.0
2017-Apr-23 06:58N 45°26' E 012°18'0 0.0
2017-Apr-23 06:28N 45°26' E 012°18'0 0.0
2017-Apr-23 05:55N 45°26' E 012°18'0 0.0
2017-Apr-23 05:28N 45°26' E 012°18'0 0.0
2017-Apr-23 04:58N 45°26' E 012°18'0 0.0
2017-Apr-23 04:28N 45°26' E 012°18'0 1.0
2017-Apr-23 04:00N 45°26' E 012°18'3 5.5
2017-Apr-23 03:30N 45°25' E 012°22'4 7.6
2017-Apr-23 03:00N 45°25' E 012°28'815.1
2017-Apr-23 02:30N 45°18' E 012°32'917.2
2017-Apr-23 02:00N 45°12' E 012°41'816.9
2017-Apr-23 01:30N 45°06' E 012°50'917.9
2017-Apr-23 01:01N 44°58' E 012°54'917.8
2017-Apr-23 00:31N 44°49' E 012°59'917.9
2017-Apr-23 00:00N 44°41' E 013°04'918.1
2017-Apr-22 23:30N 44°33' E 013°08'918.0
2017-Apr-22 23:00N 44°24' E 013°12'917.4
2017-Apr-22 22:30N 44°17' E 013°18'918.0
2017-Apr-22 22:00N 44°11' E 013°28'918.6
2017-Apr-22 21:30N 44°05' E 013°38'1121.2
2017-Apr-22 21:01N 43°59' E 013°50'1121.2
2017-Apr-22 20:30N 43°53' E 014°02'1021.0
2017-Apr-22 20:00N 43°48' E 014°15'2126.7
2017-Apr-22 20:00N 43°48' E 014°12'163 7.1 180 / 161018.0 14.010.520.0
2017-Apr-21 21:00N 42°24' E 017°24'9 8.9 030 / 161025.0 12.010.216.0
2017-Apr-21 20:00N 42°24' E 017°36'144 6.3 020 / 161025.0 12.0 8.316.0
2017-Apr-20 21:00N 40°12' E 018°54'1918.6 320 / 221020.0 13.0 9.417.0
2017-Apr-20 20:00N 39°54' E 019°00'40616.9 320 / 291020.0 13.011.217.0
2017-Apr-19 20:00N 36°06' E 026°06'206 9.5 120 / 191020.010.8 15.0-14.4
2017-Apr-18 22:17N 35°29' E 030°15'  

Dump ship's entire track history